Time;durP1;ratioP1;P1;durP2;ratioP2;P2;SDS_P1;SDS_P2;PMS_P1;PMS_P2;Temp;Humidity;BMP_temperature;BMP_pressure;BME280_temperature;BME280_humidity;BME280_pressure;Samples;Min_cycle;Max_cycle;Signal;HPM_P1;HPM_P2
2021/03/27 00:01:55;;;;;;;5.93;1.20;;;;;;;21.46;46.08;101477.00;5095036;28;20055;-62
2021/03/27 00:04:26;;;;;;;2.17;0.90;;;;;;;21.48;45.99;101474.94;5093907;28;20031;-63
2021/03/27 00:07:00;;;;;;;2.58;0.80;;;;;;;21.52;46.59;101470.84;5094553;28;20115;-63
2021/03/27 00:09:38;;;;;;;6.07;1.70;;;;;;;21.54;46.67;101477.00;5093458;28;20413;-62
2021/03/27 00:12:22;;;;;;;4.47;1.33;;;;;;;21.54;47.13;101474.25;5094480;28;20403;-62
2021/03/27 00:14:53;;;;;;;2.85;1.10;;;;;;;21.55;47.19;101473.22;5094979;28;20024;-62
2021/03/27 00:17:26;;;;;;;4.10;1.50;;;;;;;21.59;47.40;101474.56;5094495;28;20078;-62
2021/03/27 00:19:59;;;;;;;4.80;1.20;;;;;;;21.58;47.15;101467.38;5094860;28;20024;-62
2021/03/27 00:22:41;;;;;;;3.35;1.60;;;;;;;21.60;47.13;101465.31;5094637;28;20070;-63
2021/03/27 00:25:18;;;;;;;4.28;1.45;;;;;;;21.59;46.67;101464.47;5094478;28;20024;-63
2021/03/27 00:28:08;;;;;;;2.38;1.27;;;;;;;21.61;46.82;101467.03;5094712;28;20051;-63
2021/03/27 00:30:40;;;;;;;1.42;0.85;;;;;;;21.60;47.28;101462.59;5094316;28;20031;-63
2021/03/27 00:33:07;;;;;;;3.58;1.20;;;;;;;21.58;47.36;101448.22;5094367;28;20105;-62
2021/03/27 00:35:37;;;;;;;3.38;1.20;;;;;;;21.62;46.98;101452.31;5094312;28;20028;-63
2021/03/27 00:38:06;;;;;;;4.68;1.63;;;;;;;21.61;47.14;101453.34;5094298;28;20463;-62
2021/03/27 00:40:39;;;;;;;4.95;1.30;;;;;;;21.59;46.43;101449.94;5094384;28;20119;-62
2021/03/27 00:43:13;;;;;;;1.88;1.17;;;;;;;21.58;46.44;101445.50;5093967;28;20024;-63
2021/03/27 00:45:49;;;;;;;3.65;1.30;;;;;;;21.62;46.42;101441.38;5094450;28;20070;-62
2021/03/27 00:48:29;;;;;;;4.78;1.30;;;;;;;21.61;46.12;101439.66;5093088;28;20020;-63
2021/03/27 00:50:59;;;;;;;3.97;1.40;;;;;;;21.58;46.40;101442.75;5094096;28;20040;-63
2021/03/27 00:53:47;;;;;;;3.80;1.25;;;;;;;21.59;46.16;101441.72;5075827;28;20467;-62
2021/03/27 00:56:27;;;;;;;3.70;1.10;;;;;;;21.57;45.70;101438.31;5093671;28;20386;-63
2021/03/27 00:59:00;;;;;;;3.42;0.98;;;;;;;21.57;45.80;101439.16;5094117;28;20374;-62
2021/03/27 01:01:29;;;;;;;4.20;1.30;;;;;;;21.55;45.42;101438.50;5093503;28;20027;-63
2021/03/27 01:03:58;;;;;;;4.30;1.42;;;;;;;21.56;45.44;101431.16;5093944;28;20023;-63
2021/03/27 01:06:32;;;;;;;4.18;1.40;;;;;;;21.53;45.85;101431.50;5093647;28;20027;-62
2021/03/27 01:08:59;;;;;;;5.10;1.63;;;;;;;21.55;45.61;101434.91;5093648;28;20024;-63
2021/03/27 01:11:30;;;;;;;3.22;1.27;;;;;;;21.53;45.41;101431.50;5093716;28;20034;-63
2021/03/27 01:13:58;;;;;;;3.83;1.02;;;;;;;21.48;45.18;101425.69;5093743;28;20062;-62
2021/03/27 01:16:37;;;;;;;4.30;1.38;;;;;;;21.52;45.24;101424.34;5093261;28;20028;-63
2021/03/27 01:19:08;;;;;;;3.85;1.35;;;;;;;21.49;45.50;101425.50;5093515;28;20052;-63
2021/03/27 01:21:37;;;;;;;5.03;2.05;;;;;;;21.46;45.39;101423.16;5093696;28;20031;-63
2021/03/27 01:24:07;;;;;;;4.32;1.38;;;;;;;21.48;45.22;101425.69;5093389;28;20031;-62
2021/03/27 01:26:41;;;;;;;3.30;1.02;;;;;;;21.47;45.40;101426.72;5093504;28;20032;-62
2021/03/27 01:29:09;;;;;;;4.15;1.40;;;;;;;21.47;45.48;101415.78;5093544;28;20031;-63
2021/03/27 01:31:42;;;;;;;2.30;1.10;;;;;;;21.45;45.55;101417.84;5075345;28;20027;-62
2021/03/27 01:34:29;;;;;;;5.13;1.55;;;;;;;21.45;45.38;101423.31;5093219;28;20020;-62
2021/03/27 01:37:12;;;;;;;3.58;1.33;;;;;;;21.45;44.77;101423.31;5093288;28;20020;-62
2021/03/27 01:39:59;;;;;;;2.90;1.15;;;;;;;21.43;45.31;101430.84;5093154;28;20023;-63
2021/03/27 01:42:53;;;;;;;2.90;1.00;;;;;;;21.43;45.34;101418.03;5093121;28;20042;-63
2021/03/27 01:45:50;;;;;;;2.08;1.30;;;;;;;21.41;44.97;101421.97;5093150;28;20032;-62
2021/03/27 01:48:27;;;;;;;4.05;1.67;;;;;;;21.42;44.85;101426.41;5074341;28;20513;-62
2021/03/27 01:51:00;;;;;;;4.15;1.35;;;;;;;21.41;44.66;101421.97;5093147;28;20028;-62
2021/03/27 01:53:51;;;;;;;3.72;1.30;;;;;;;21.42;44.65;101427.28;5093239;28;20424;-63
2021/03/27 01:56:26;;;;;;;3.17;1.30;;;;;;;21.39;44.18;101418.56;5092543;28;20034;-62
2021/03/27 01:59:04;;;;;;;2.50;0.90;;;;;;;21.39;44.39;101413.09;5093298;28;20031;-63
2021/03/27 02:01:39;;;;;;;1.52;1.00;;;;;;;21.40;44.07;101420.28;5092772;28;20035;-63
2021/03/27 02:04:23;;;;;;;2.80;1.25;;;;;;;21.38;44.39;101416.88;5092716;28;20428;-63
2021/03/27 02:06:56;;;;;;;2.60;0.95;;;;;;;21.38;44.82;101416.88;5092609;28;20028;-63
2021/03/27 02:09:31;;;;;;;6.07;1.85;;;;;;;21.38;45.45;101419.59;5093063;28;20028;-62
2021/03/27 02:12:26;;;;;;;3.72;1.13;;;;;;;21.39;46.10;101424.03;5092766;28;20114;-63
2021/03/27 02:14:53;;;;;;;;;;;;;;;21.37;46.57;101426.09;5092634;28;20031;-63
2021/03/27 02:17:30;;;;;;;2.08;1.20;;;;;;;21.38;46.54;101411.41;5092353;28;19923;-62
2021/03/27 02:20:15;;;;;;;2.58;1.10;;;;;;;21.35;47.15;101415.34;5092126;28;20087;-63
2021/03/27 02:22:50;;;;;;;2.05;1.10;;;;;;;21.35;46.92;101412.63;5092604;28;20020;-63
2021/03/27 02:25:32;;;;;;;2.80;1.42;;;;;;;21.35;47.54;101411.75;5092499;28;20032;-63
2021/03/27 02:28:19;;;;;;;1.75;1.20;;;;;;;21.34;47.69;101418.25;5092308;28;20020;-63
2021/03/27 02:31:13;;;;;;;2.50;1.60;;;;;;;21.34;47.36;101421.84;5092995;28;20371;-63
2021/03/27 02:33:51;;;;;;;3.17;1.38;;;;;;;21.37;47.39;101415.16;5089217;28;20233;-63
2021/03/27 02:36:38;;;;;;;3.55;1.58;;;;;;;21.36;47.47;101418.94;5092116;28;20540;-62
2021/03/27 02:39:12;;;;;;;3.88;1.30;;;;;;;21.37;47.48;101406.97;5092267;28;20024;-63
2021/03/27 02:42:04;;;;;;;3.70;1.70;;;;;;;21.38;47.17;101411.41;5074694;28;20020;-62
2021/03/27 02:44:38;;;;;;;3.38;1.35;;;;;;;21.38;46.89;101412.25;5092292;28;20031;-63
2021/03/27 02:47:18;;;;;;;;;;;;;;;21.44;46.83;101410.69;5092347;28;20043;-63
2021/03/27 02:50:01;;;;;;;2.00;1.23;;;;;;;21.45;46.36;101406.91;5092372;28;19908;-62
2021/03/27 02:52:45;;;;;;;2.22;1.38;;;;;;;21.41;47.02;101405.56;5092222;28;20439;-62
2021/03/27 02:55:32;;;;;;;2.67;1.13;;;;;;;21.43;46.05;101407.09;5073791;28;20135;-62
2021/03/27 02:58:06;;;;;;;2.60;1.38;;;;;;;21.48;46.25;101406.53;5092471;28;20465;-63
2021/03/27 03:00:43;;;;;;;1.48;1.05;;;;;;;21.49;45.73;101413.72;5092138;28;20032;-62
2021/03/27 03:03:20;;;;;;;2.10;1.33;;;;;;;21.49;45.08;101419.19;5092047;28;20028;-62
2021/03/27 03:05:53;;;;;;;1.55;1.08;;;;;;;21.48;45.44;101407.41;5092154;28;20482;-62
2021/03/27 03:08:35;;;;;;;3.42;1.30;;;;;;;21.49;45.61;101405.50;5092014;28;20024;-63
2021/03/27 03:11:22;;;;;;;2.75;1.40;;;;;;;21.52;44.94;101403.31;5092007;28;20020;-63
2021/03/27 03:13:55;;;;;;;2.20;1.08;;;;;;;21.52;44.96;101397.84;5092136;28;20359;-63
2021/03/27 03:16:44;;;;;;;2.03;1.27;;;;;;;21.54;44.98;101403.13;5091113;28;20243;-62
2021/03/27 03:19:17;;;;;;;2.00;1.08;;;;;;;21.57;45.17;101406.34;5091703;28;20534;-63
2021/03/27 03:22:01;;;;;;;3.22;1.33;;;;;;;21.58;44.67;101401.72;5092432;28;20035;-63
2021/03/27 03:24:34;;;;;;;2.95;1.40;;;;;;;21.57;44.84;101400.88;5091971;28;20028;-62
2021/03/27 03:27:18;;;;;;;1.30;1.00;;;;;;;21.56;45.25;101399.16;5095602;28;20032;-63
2021/03/27 03:30:00;;;;;;;1.87;1.10;;;;;;;21.57;44.59;101395.41;5077689;28;20459;-62
2021/03/27 03:32:37;;;;;;;2.60;1.42;;;;;;;21.55;44.66;101404.81;5095757;28;20221;-62
2021/03/27 03:35:46;;;;;;;3.42;1.48;;;;;;;21.59;44.48;101408.91;5095507;28;20028;-62
2021/03/27 03:38:23;;;;;;;1.75;1.23;;;;;;;21.57;45.03;101394.53;4993293;28;20038;-63
2021/03/27 03:41:16;;;;;;;3.15;1.50;;;;;;;21.59;44.68;101398.81;4993704;28;20073;-63
2021/03/27 03:43:49;;;;;;;3.20;1.38;;;;;;;21.58;44.73;101397.09;4993614;28;20042;-62
2021/03/27 03:46:41;;;;;;;2.03;1.17;;;;;;;21.62;44.16;101392.13;4992772;28;20030;-62
2021/03/27 03:49:36;;;;;;;2.92;1.73;;;;;;;21.60;43.94;101385.97;4993235;28;20046;-63
2021/03/27 03:52:12;;;;;;;3.03;1.50;;;;;;;21.60;44.09;101388.72;4954435;29;20039;-63
2021/03/27 03:55:13;;;;;;;2.88;1.55;;;;;;;21.58;43.74;101393.50;4954458;29;20055;-62
2021/03/27 03:57:58;;;;;;;2.45;1.05;;;;;;;21.60;43.39;101389.56;4954550;29;20399;-62
2021/03/27 04:00:34;;;;;;;3.08;1.60;;;;;;;21.59;43.63;101395.22;4954361;28;20070;-63
2021/03/27 04:03:08;;;;;;;3.42;1.50;;;;;;;21.58;43.48;101390.78;4954322;29;20118;-62
2021/03/27 04:05:39;;;;;;;2.97;1.75;;;;;;;21.57;43.58;101394.53;4954584;29;20500;-63
2021/03/27 04:08:27;;;;;;;4.35;1.40;;;;;;;21.63;43.23;101393.81;4957176;28;20074;-63
2021/03/27 04:11:00;;;;;;;2.10;1.50;;;;;;;21.63;43.47;101394.66;4973495;28;20026;-62
2021/03/27 04:13:39;;;;;;;4.45;1.25;;;;;;;21.64;43.98;101395.53;4973611;28;20377;-63
2021/03/27 04:16:11;;;;;;;2.05;1.17;;;;;;;21.62;44.28;101386.66;5050001;28;20043;-63
2021/03/27 04:18:45;;;;;;;3.05;1.30;;;;;;;21.64;44.82;101390.03;5072219;28;20024;-62
2021/03/27 04:21:21;;;;;;;2.40;1.13;;;;;;;21.64;45.45;101392.78;5071982;28;20036;-63
2021/03/27 04:23:57;;;;;;;3.42;1.75;;;;;;;21.62;45.96;101392.13;5072168;28;20454;-62
2021/03/27 04:26:37;;;;;;;3.47;1.45;;;;;;;21.65;45.98;101389.00;5071917;28;20028;-62
2021/03/27 04:29:30;;;;;;;1.42;1.13;;;;;;;21.64;45.99;101384.56;5088876;28;20040;-63
2021/03/27 04:32:27;;;;;;;1.52;1.08;;;;;;;21.62;46.56;101392.13;5094548;28;20027;-63
2021/03/27 04:35:34;;;;;;;2.75;1.20;;;;;;;21.63;46.53;101386.47;5094628;28;20051;-62
2021/03/27 04:38:14;;;;;;;3.15;1.52;;;;;;;21.64;46.62;101387.31;5091847;28;20066;-62
2021/03/27 04:41:06;;;;;;;2.60;0.82;;;;;;;21.63;46.57;101388.34;5094520;28;20111;-62
2021/03/27 04:43:38;;;;;;;1.60;1.00;;;;;;;21.63;46.39;101383.72;5094404;28;20026;-62
2021/03/27 04:46:12;;;;;;;2.92;1.10;;;;;;;21.64;46.38;101384.56;5093772;28;20032;-62
2021/03/27 04:49:14;;;;;;;2.00;1.23;;;;;;;21.64;46.54;101384.56;5094231;28;20371;-62
2021/03/27 04:51:46;;;;;;;2.85;1.17;;;;;;;21.65;46.51;101379.94;5094163;28;20032;-62
2021/03/27 04:54:31;;;;;;;1.40;1.05;;;;;;;21.64;46.38;101381.84;5093850;28;20036;-63
2021/03/27 04:57:09;;;;;;;3.67;1.30;;;;;;;21.65;45.86;101379.94;5008170;28;20489;-62
2021/03/27 04:59:56;;;;;;;2.30;1.10;;;;;;;21.65;45.47;101364.38;5011702;28;20045;-63
2021/03/27 05:02:53;;;;;;;2.13;1.20;;;;;;;21.63;45.63;101366.44;5011448;28;20040;-62
2021/03/27 05:05:21;;;;;;;1.35;1.05;;;;;;;21.67;44.99;101366.94;5011444;28;20057;-62
2021/03/27 05:08:14;;;;;;;2.65;1.10;;;;;;;21.69;45.40;101376.69;5011602;28;20038;-62
2021/03/27 05:10:50;;;;;;;1.92;1.17;;;;;;;21.78;44.89;101370.13;5011589;28;20113;-62
2021/03/27 05:13:22;;;;;;;1.63;1.10;;;;;;;21.87;44.58;101362.72;5011379;28;20477;-62
2021/03/27 05:15:59;;;;;;;2.17;1.00;;;;;;;21.97;44.00;101356.97;5006569;28;20050;-61
2021/03/27 05:18:53;;;;;;;1.90;1.15;;;;;;;22.00;44.05;101345.66;4992017;28;20458;-62
2021/03/27 05:21:41;;;;;;;1.90;1.15;;;;;;;22.04;43.45;101352.50;4991646;28;20061;-62
2021/03/27 05:24:51;;;;;;;1.55;1.10;;;;;;;22.07;43.24;101346.69;4991510;28;20030;-62
2021/03/27 05:27:44;;;;;;;2.83;1.17;;;;;;;22.06;43.37;101350.47;4991374;28;20109;-62
2021/03/27 05:30:10;;;;;;;1.85;0.90;;;;;;;22.08;43.55;101353.84;4991365;28;20053;-62
2021/03/27 05:32:58;;;;;;;2.05;0.95;;;;;;;22.09;43.46;101350.09;4991625;28;20505;-62
2021/03/27 05:35:33;;;;;;;2.83;1.10;;;;;;;22.11;43.41;101348.00;5074780;28;20047;-62
2021/03/27 05:38:14;;;;;;;2.40;0.98;;;;;;;22.12;43.61;101352.44;5093246;28;20031;-62
2021/03/27 05:40:48;;;;;;;3.20;1.10;;;;;;;22.14;43.14;101353.13;5093455;28;20056;-62
2021/03/27 05:43:30;;;;;;;;;;;;;;;22.14;43.44;101353.13;5093349;28;20028;-62
2021/03/27 05:46:32;;;;;;;1.80;1.20;;;;;;;22.15;43.18;101354.81;5074800;28;19912;-62
2021/03/27 05:49:10;;;;;;;1.55;0.60;;;;;;;22.15;43.12;101354.81;5092829;28;20024;-62
2021/03/27 05:52:08;;;;;;;2.50;1.00;;;;;;;22.19;42.73;101356.16;5093094;28;20463;-61
2021/03/27 05:54:58;;;;;;;3.58;1.20;;;;;;;22.19;43.21;101351.53;5092819;28;20122;-62
2021/03/27 05:57:35;;;;;;;2.20;0.98;;;;;;;22.20;43.02;101357.88;5093019;28;20480;-62
2021/03/27 06:00:09;;;;;;;2.17;0.65;;;;;;;22.20;42.61;101352.41;5092755;28;20026;-62
2021/03/27 06:02:59;;;;;;;2.65;0.93;;;;;;;22.22;42.24;101361.28;5093203;28;20056;-62
2021/03/27 06:05:46;;;;;;;1.25;0.77;;;;;;;22.21;42.19;101352.22;5093142;28;20032;-62
2021/03/27 06:08:28;;;;;;;2.30;0.90;;;;;;;21.82;42.52;101352.28;5092449;28;20032;-62
2021/03/27 06:11:12;;;;;;;1.08;0.80;;;;;;;21.63;44.25;101350.03;5092863;28;20490;-63
2021/03/27 06:13:48;;;;;;;2.45;0.73;;;;;;;21.45;44.12;101346.72;5092927;28;20023;-62
2021/03/27 06:16:38;;;;;;;3.00;1.55;;;;;;;21.36;43.69;101361.50;5092391;28;20051;-62
2021/03/27 06:19:12;;;;;;;1.58;0.75;;;;;;;21.29;44.15;101355.88;5092341;28;20525;-62
2021/03/27 06:21:56;;;;;;;1.45;0.73;;;;;;;21.19;44.53;101356.06;5092636;28;20028;-63
2021/03/27 06:24:42;;;;;;;1.85;0.65;;;;;;;21.16;45.36;101353.66;5092305;28;20093;-62
2021/03/27 06:27:48;;;;;;;1.23;0.50;;;;;;;21.22;45.63;101347.50;5092319;28;20024;-62
2021/03/27 06:30:51;;;;;;;5.15;1.23;;;;;;;21.23;47.00;101353.81;5091632;28;20047;-62
2021/03/27 06:33:43;;;;;;;1.65;0.65;;;;;;;21.19;47.55;101353.34;5092347;28;20042;-62
2021/03/27 06:36:28;;;;;;;2.17;0.55;;;;;;;21.22;48.04;101358.44;5092234;28;20031;-62
2021/03/27 06:39:25;;;;;;;1.20;0.55;;;;;;;21.22;49.06;101355.72;5092306;28;20513;-63
2021/03/27 06:42:12;;;;;;;1.30;0.50;;;;;;;21.27;48.20;101350.59;5092287;28;20028;-62
2021/03/27 06:45:10;;;;;;;2.65;0.65;;;;;;;21.28;47.57;101348.69;5074215;28;20114;-63
2021/03/27 06:47:51;;;;;;;1.67;0.73;;;;;;;21.29;48.37;101348.53;4990362;28;20154;-62
2021/03/27 06:50:32;;;;;;;1.73;0.60;;;;;;;21.28;48.42;101349.56;4990126;28;20101;-62
2021/03/27 06:53:19;;;;;;;1.75;0.57;;;;;;;21.26;48.67;101351.63;4990334;28;20041;-62
2021/03/27 06:55:56;;;;;;;1.63;0.70;;;;;;;21.27;48.30;101349.72;4990492;28;20042;-62
2021/03/27 06:59:02;;;;;;;3.25;0.50;;;;;;;21.24;48.00;101350.94;4990269;28;20042;-62
2021/03/27 07:01:39;;;;;;;2.15;0.60;;;;;;;21.27;48.33;101350.59;4993524;28;20511;-62
2021/03/27 07:04:13;;;;;;;1.98;0.40;;;;;;;21.25;48.63;101347.19;4994151;28;20038;-62
2021/03/27 07:07:00;;;;;;;2.03;0.75;;;;;;;21.22;48.54;101339.31;4994355;28;20499;-62
2021/03/27 07:09:59;;;;;;;1.90;0.68;;;;;;;21.26;47.80;101343.41;4994235;28;20038;-61
2021/03/27 07:12:46;;;;;;;1.55;0.50;;;;;;;21.23;48.46;101341.00;4993945;28;20034;-62
2021/03/27 07:15:29;;;;;;;1.73;0.70;;;;;;;21.23;47.07;101340.16;4993495;28;20026;-62
2021/03/27 07:18:34;;;;;;;1.65;0.50;;;;;;;21.22;47.30;101347.50;4994059;28;20038;-62
2021/03/27 07:21:08;;;;;;;0.63;0.30;;;;;;;21.22;47.27;101344.78;4993894;28;20062;-62
2021/03/27 07:23:55;;;;;;;0.70;0.40;;;;;;;21.18;46.67;101346.16;5008378;28;20091;-62
2021/03/27 07:26:39;;;;;;;1.40;0.70;;;;;;;21.18;46.89;101348.06;5095627;28;20067;-62
2021/03/27 07:29:39;;;;;;;1.05;0.30;;;;;;;21.20;47.20;101344.09;5095622;28;20028;-62
2021/03/27 07:32:36;;;;;;;1.05;0.55;;;;;;;21.15;47.05;101349.22;5095544;28;20494;-62
2021/03/27 07:35:29;;;;;;;1.95;0.85;;;;;;;21.16;46.69;101347.34;5095518;28;20061;-62
2021/03/27 07:38:33;;;;;;;0.88;0.55;;;;;;;21.16;46.81;101342.72;5095670;28;20095;-62
2021/03/27 07:41:32;;;;;;;2.15;0.52;;;;;;;21.17;46.81;101344.47;5095422;28;20108;-62
2021/03/27 07:44:29;;;;;;;0.80;0.57;;;;;;;21.15;46.37;101327.34;5095489;28;20498;-61
2021/03/27 07:47:27;;;;;;;0.93;0.40;;;;;;;21.18;46.41;101329.75;5079999;28;20024;-62
2021/03/27 07:50:21;;;;;;;0.80;0.40;;;;;;;21.14;47.12;101325.66;5078735;28;20020;-62
2021/03/27 07:53:08;;;;;;;2.60;0.52;;;;;;;21.10;47.49;101327.06;5095457;28;20027;-62
2021/03/27 07:55:58;;;;;;;1.70;0.60;;;;;;;21.16;47.04;101315.38;5095259;28;20048;-62
2021/03/27 07:58:42;;;;;;;1.60;0.60;;;;;;;21.14;48.05;101322.91;5076818;28;20028;-62
2021/03/27 08:01:24;;;;;;;1.05;0.77;;;;;;;21.16;46.97;101315.38;5094550;28;20098;-62
2021/03/27 08:04:47;;;;;;;1.30;0.40;;;;;;;21.16;47.39;101315.38;5095166;28;20490;-62
2021/03/27 08:08:01;;;;;;;1.45;0.50;;;;;;;21.15;47.95;101319.16;5094517;28;20040;-62
2021/03/27 08:10:51;;;;;;;1.58;0.32;;;;;;;21.24;46.94;101312.66;5094822;28;20046;-62
2021/03/27 08:14:00;;;;;;;1.48;0.32;;;;;;;21.29;46.67;101307.50;5094139;28;20047;-62
2021/03/27 08:16:58;;;;;;;1.15;0.52;;;;;;;21.32;46.78;101303.53;5094979;28;20410;-62
2021/03/27 08:19:41;;;;;;;0.85;0.50;;;;;;;21.34;46.61;101306.13;5094810;28;20024;-62
2021/03/27 08:22:28;;;;;;;1.20;0.60;;;;;;;21.25;46.54;101295.22;5094673;28;20069;-62
2021/03/27 08:25:11;;;;;;;0.90;0.40;;;;;;;21.26;47.37;101296.94;5094735;28;20028;-62
2021/03/27 08:28:07;;;;;;;0.40;0.28;;;;;;;21.27;47.56;101287.69;5094741;28;20032;-61
2021/03/27 08:31:17;;;;;;;0.95;0.32;;;;;;;21.30;48.29;101292.78;5076057;28;20032;-62
2021/03/27 08:34:13;;;;;;;0.85;0.32;;;;;;;21.28;49.30;101292.13;5089644;28;20032;-62
2021/03/27 08:36:48;;;;;;;0.22;0.20;;;;;;;21.28;49.74;101294.84;5094627;28;20024;-62
2021/03/27 08:39:19;;;;;;;1.33;0.75;;;;;;;21.32;49.52;101287.13;5094324;28;20024;-62
2021/03/27 08:42:06;;;;;;;0.70;0.55;;;;;;;21.32;49.66;101289.88;5094325;28;20422;-62
2021/03/27 08:44:49;;;;;;;1.38;0.45;;;;;;;21.30;49.76;101289.19;5094041;28;20461;-62
2021/03/27 08:47:36;;;;;;;0.70;0.40;;;;;;;21.34;50.09;101284.25;5094113;28;20065;-62
2021/03/27 08:50:16;;;;;;;1.60;0.30;;;;;;;21.38;48.68;101291.06;5093861;28;20538;-61
2021/03/27 08:52:45;;;;;;;2.33;0.40;;;;;;;21.37;49.38;101290.22;5075893;28;20038;-62
2021/03/27 08:55:35;;;;;;;1.13;0.50;;;;;;;21.42;49.43;101286.91;5093825;28;20075;-62
2021/03/27 08:58:25;;;;;;;0.63;0.30;;;;;;;21.44;49.00;101284.84;5093930;28;20020;-62
2021/03/27 09:01:08;;;;;;;0.13;0.10;;;;;;;21.46;48.22;101286.38;5093563;28;20059;-62
2021/03/27 09:04:05;;;;;;;0.95;0.35;;;;;;;21.47;48.34;101287.22;5093983;28;20028;-62
2021/03/27 09:07:02;;;;;;;0.35;0.17;;;;;;;21.54;48.13;101280.00;5093584;28;20035;-61
2021/03/27 09:10:03;;;;;;;1.40;0.40;;;;;;;21.51;48.04;101280.38;5093985;28;20024;-62
2021/03/27 09:12:46;;;;;;;0.70;0.30;;;;;;;21.45;47.97;101270.13;5093387;28;20023;-62
2021/03/27 09:15:33;;;;;;;2.15;0.35;;;;;;;21.41;48.82;101274.28;5093906;28;20026;-62
2021/03/27 09:18:35;;;;;;;1.02;0.38;;;;;;;21.33;48.68;101275.16;5075332;28;20027;-62
2021/03/27 09:21:06;;;;;;;0.40;0.20;;;;;;;21.30;47.81;101259.97;5075309;28;20028;-62
2021/03/27 09:23:48;;;;;;;1.85;0.75;;;;;;;21.29;47.51;101261.00;5093241;28;20023;-62
2021/03/27 09:26:33;;;;;;;0.85;0.45;;;;;;;21.28;48.14;101248.38;5093156;28;20367;-62
2021/03/27 09:29:01;;;;;;;;;;;;;;;21.30;47.62;101242.72;5093856;28;20406;-62
2021/03/27 09:31:50;;;;;;;1.40;0.35;;;;;;;21.26;47.38;101239.50;5093085;28;20426;-62
2021/03/27 09:34:22;;;;;;;0.90;0.30;;;;;;;21.31;47.38;101244.41;5084929;28;20028;-62
2021/03/27 09:36:53;;;;;;;1.20;0.20;;;;;;;21.31;47.43;101233.47;5093179;28;20028;-62
2021/03/27 09:39:36;;;;;;;0.52;0.25;;;;;;;21.28;48.44;101242.91;5093193;28;20024;-62
2021/03/27 09:42:10;;;;;;;1.02;0.60;;;;;;;21.32;47.70;101241.50;5093398;28;20032;-62
2021/03/27 09:44:47;;;;;;;0.47;0.30;;;;;;;21.31;47.50;101237.06;5092929;28;20178;-62
2021/03/27 09:47:22;;;;;;;1.08;0.55;;;;;;;21.31;47.52;101236.22;5092955;28;20099;-62
2021/03/27 09:50:18;;;;;;;1.15;0.57;;;;;;;21.32;47.74;101230.56;5074889;28;20146;-62
2021/03/27 09:53:04;;;;;;;0.52;0.30;;;;;;;21.31;47.65;101231.59;5074986;28;20024;-61
2021/03/27 09:55:39;;;;;;;0.50;0.20;;;;;;;21.33;47.26;101228.66;5092946;28;20040;-62
2021/03/27 09:58:13;;;;;;;0.73;0.25;;;;;;;21.33;48.13;101225.94;5092735;28;20030;-63
2021/03/27 10:00:54;;;;;;;0.95;0.30;;;;;;;21.30;47.51;101210.75;5092725;28;20059;-62
2021/03/27 10:04:06;;;;;;;0.85;0.20;;;;;;;21.31;47.54;101204.25;5092793;28;20106;-62
2021/03/27 10:06:42;;;;;;;1.23;0.20;;;;;;;21.34;47.70;101207.69;4990793;28;20038;-62
2021/03/27 10:09:33;;;;;;;1.20;0.30;;;;;;;21.37;47.79;101210.03;4990283;28;20034;-62
2021/03/27 10:12:17;;;;;;;1.45;0.32;;;;;;;21.40;47.60;101209.66;4990689;28;20050;-62
2021/03/27 10:14:54;;;;;;;;;;;;;;;21.41;47.49;101214.97;4975081;28;20038;-62
2021/03/27 10:17:30;;;;;;;1.35;0.30;;;;;;;21.39;46.91;101205.25;4990752;28;19909;-62
2021/03/27 10:20:13;;;;;;;1.13;0.20;;;;;;;21.39;46.23;101206.09;4990711;28;20389;-62
2021/03/27 10:22:50;;;;;;;0.63;0.22;;;;;;;21.45;46.94;101210.81;4990757;28;20113;-62
2021/03/27 10:25:18;;;;;;;0.47;0.17;;;;;;;21.49;47.41;101200.34;4990584;28;20030;-62
2021/03/27 10:28:02;;;;;;;1.33;0.43;;;;;;;21.52;47.87;101200.00;4990855;28;20453;-62
2021/03/27 10:30:35;;;;;;;0.40;0.20;;;;;;;21.59;48.51;101206.44;4987329;28;20437;-62
2021/03/27 10:33:00;;;;;;;0.95;0.40;;;;;;;21.62;48.49;101197.84;4971076;28;20141;-62
2021/03/27 10:35:43;;;;;;;1.55;0.30;;;;;;;21.59;48.76;101200.97;4970472;28;20461;-62
2021/03/27 10:38:45;;;;;;;0.95;0.10;;;;;;;21.49;50.04;101190.25;4970916;28;20031;-62
2021/03/27 10:41:35;;;;;;;0.88;0.45;;;;;;;21.41;49.80;101198.53;5057289;28;20068;-62
2021/03/27 10:44:15;;;;;;;1.95;0.40;;;;;;;21.37;49.62;101189.00;5072118;28;20275;-61
2021/03/27 10:46:56;;;;;;;2.28;0.30;;;;;;;21.35;49.29;101188.34;5072332;28;20042;-62
2021/03/27 10:49:30;;;;;;;0.65;0.20;;;;;;;21.35;49.52;101182.03;5071993;28;20028;-62
2021/03/27 10:52:17;;;;;;;0.75;0.38;;;;;;;21.34;49.58;101191.28;5072147;28;20530;-62
2021/03/27 10:54:54;;;;;;;0.57;0.30;;;;;;;21.36;49.42;101189.19;5072102;28;20056;-62
2021/03/27 10:57:52;;;;;;;2.60;0.32;;;;;;;21.34;49.49;101194.00;5072075;28;20165;-61
2021/03/27 11:00:33;;;;;;;0.68;0.40;;;;;;;21.35;48.59;101192.97;5079705;28;20054;-62
2021/03/27 11:03:01;;;;;;;1.00;0.30;;;;;;;21.35;49.06;101185.63;5091720;28;20032;-62
2021/03/27 11:06:05;;;;;;;0.52;0.20;;;;;;;21.33;49.24;101179.44;5092601;28;20524;-62
2021/03/27 11:09:06;;;;;;;0.50;0.30;;;;;;;21.36;48.06;101179.09;5029364;28;20042;-62
2021/03/27 11:11:34;;;;;;;1.75;0.40;;;;;;;21.38;47.84;101167.97;5029614;28;20103;-63
2021/03/27 11:14:33;;;;;;;1.08;0.50;;;;;;;21.36;48.46;101170.06;5029437;28;20112;-62
2021/03/27 11:17:17;;;;;;;0.47;0.40;;;;;;;21.39;48.21;101162.31;5029284;28;20116;-62
2021/03/27 11:20:03;;;;;;;0.70;0.33;;;;;;;21.34;48.33;101158.44;5029721;28;20075;-62
2021/03/27 11:22:53;;;;;;;0.32;0.20;;;;;;;21.35;48.82;101160.16;5029442;28;20037;-62
2021/03/27 11:25:30;;;;;;;1.20;0.38;;;;;;;21.32;48.75;101159.44;5029401;28;20029;-62
2021/03/27 11:28:15;;;;;;;0.77;0.38;;;;;;;21.36;48.71;101167.31;5029460;28;20037;-62
2021/03/27 11:31:06;;;;;;;;;;;;;;;21.37;48.04;101158.06;5029123;28;20112;-62
2021/03/27 11:33:49;;;;;;;0.52;0.35;;;;;;;21.37;48.84;101156.19;5029529;28;19909;-61
2021/03/27 11:36:25;;;;;;;0.85;0.50;;;;;;;21.38;47.47;101143.38;5029060;28;20025;-62
2021/03/27 11:39:03;;;;;;;1.38;0.30;;;;;;;21.44;48.08;101148.09;5029269;28;20140;-61
2021/03/27 11:41:41;;;;;;;1.25;0.40;;;;;;;21.41;47.50;101148.47;5029092;28;20029;-62
2021/03/27 11:44:16;;;;;;;0.88;0.55;;;;;;;21.44;47.46;101154.41;5029238;28;20038;-62
2021/03/27 11:47:02;;;;;;;0.30;0.30;;;;;;;21.48;47.51;101152.16;5094074;28;20032;-61
2021/03/27 11:49:45;;;;;;;1.73;0.35;;;;;;;21.50;47.14;101152.81;5094929;28;20432;-62
2021/03/27 11:52:20;;;;;;;1.23;0.68;;;;;;;21.50;47.31;101152.81;5074978;28;20024;-62
2021/03/27 11:55:02;;;;;;;2.13;0.30;;;;;;;21.51;47.24;101149.06;5075074;28;20045;-62
2021/03/27 11:57:42;;;;;;;1.48;0.55;;;;;;;21.59;47.09;101138.03;5075187;28;20040;-62
2021/03/27 12:03:37;;;;;;;1.13;0.50;;;;;;;21.54;47.47;101126.81;5032681;28;20056;-62
2021/03/27 12:06:08;;;;;;;1.15;0.70;;;;;;;21.49;47.81;101126.50;5032397;28;20029;-62
2021/03/27 12:08:55;;;;;;;1.60;0.70;;;;;;;21.39;47.69;101117.72;5032268;28;20037;-62
2021/03/27 12:11:51;;;;;;;1.05;0.73;;;;;;;21.35;48.04;101113.66;5032485;28;20061;-61
2021/03/27 12:14:49;;;;;;;2.35;0.90;;;;;;;21.31;48.06;101111.25;5032082;28;20041;-62
2021/03/27 12:17:24;;;;;;;0.68;0.47;;;;;;;21.36;48.07;101107.16;5032271;28;20277;-62
2021/03/27 12:20:07;;;;;;;1.92;0.82;;;;;;;21.35;49.50;101106.31;5032306;28;20025;-61
2021/03/27 12:22:45;;;;;;;1.25;0.60;;;;;;;21.34;49.40;101104.59;5032105;28;20470;-61
2021/03/27 12:25:22;;;;;;;1.15;0.68;;;;;;;21.39;49.30;101106.78;5031971;28;20034;-63
2021/03/27 12:27:59;;;;;;;1.17;0.88;;;;;;;21.40;49.62;101101.13;5032101;28;20120;-62
2021/03/27 12:30:45;;;;;;;0.90;0.70;;;;;;;21.39;49.51;101104.03;5031695;28;20037;-62
2021/03/27 12:33:39;;;;;;;3.15;0.90;;;;;;;21.39;49.67;101098.56;5032490;28;20120;-62
2021/03/27 12:36:04;;;;;;;1.10;1.00;;;;;;;21.40;49.99;101092.06;5076236;28;20024;-62
2021/03/27 12:38:56;;;;;;;1.17;0.70;;;;;;;21.40;50.23;101086.59;5076494;28;20349;-62
2021/03/27 12:41:29;;;;;;;1.15;0.63;;;;;;;21.41;49.71;101089.13;5031435;28;20169;-62
2021/03/27 12:44:01;;;;;;;1.58;1.00;;;;;;;21.37;50.10;101081.50;5015234;28;20028;-62